sensor_id;sensor_type;location;lat;lon;timestamp;P1;durP1;ratioP1;P2;durP2;ratioP2
43527;SDS011;52359;42.658;23.320;2022-10-31T00:01:08;6.95;;;3.45;;
43527;SDS011;52359;42.658;23.320;2022-10-31T00:03:35;5.05;;;3.13;;
43527;SDS011;52359;42.658;23.320;2022-10-31T00:06:01;6.53;;;3.88;;
43527;SDS011;52359;42.658;23.320;2022-10-31T00:08:27;8.45;;;4.10;;
43527;SDS011;52359;42.658;23.320;2022-10-31T00:10:53;8.73;;;3.35;;
43527;SDS011;52359;42.658;23.320;2022-10-31T00:13:19;6.38;;;3.75;;
43527;SDS011;52359;42.658;23.320;2022-10-31T00:15:45;7.13;;;3.30;;
43527;SDS011;52359;42.658;23.320;2022-10-31T00:18:11;5.85;;;3.58;;
43527;SDS011;52359;42.658;23.320;2022-10-31T00:20:37;7.32;;;2.83;;
43527;SDS011;52359;42.658;23.320;2022-10-31T00:23:04;6.50;;;3.30;;
43527;SDS011;52359;42.658;23.320;2022-10-31T00:25:32;10.48;;;3.88;;
43527;SDS011;52359;42.658;23.320;2022-10-31T00:27:59;7.05;;;3.50;;
43527;SDS011;52359;42.658;23.320;2022-10-31T00:30:25;9.02;;;3.88;;
43527;SDS011;52359;42.658;23.320;2022-10-31T00:32:51;12.70;;;3.58;;
43527;SDS011;52359;42.658;23.320;2022-10-31T00:35:17;7.57;;;3.70;;
43527;SDS011;52359;42.658;23.320;2022-10-31T00:37:43;10.20;;;3.90;;
43527;SDS011;52359;42.658;23.320;2022-10-31T00:40:09;13.18;;;4.03;;
43527;SDS011;52359;42.658;23.320;2022-10-31T00:42:35;9.63;;;3.17;;
43527;SDS011;52359;42.658;23.320;2022-10-31T00:45:01;13.05;;;4.10;;
43527;SDS011;52359;42.658;23.320;2022-10-31T00:47:27;11.63;;;3.35;;
43527;SDS011;52359;42.658;23.320;2022-10-31T00:49:53;7.95;;;3.20;;
43527;SDS011;52359;42.658;23.320;2022-10-31T00:52:19;9.65;;;3.47;;
43527;SDS011;52359;42.658;23.320;2022-10-31T00:54:45;6.15;;;3.20;;
43527;SDS011;52359;42.658;23.320;2022-10-31T00:57:11;8.02;;;3.60;;
43527;SDS011;52359;42.658;23.320;2022-10-31T00:59:37;7.00;;;3.38;;
43527;SDS011;52359;42.658;23.320;2022-10-31T01:02:03;7.78;;;3.00;;
43527;SDS011;52359;42.658;23.320;2022-10-31T01:04:29;8.82;;;3.65;;
43527;SDS011;52359;42.658;23.320;2022-10-31T01:06:55;6.68;;;3.22;;
43527;SDS011;52359;42.658;23.320;2022-10-31T01:09:21;8.05;;;3.15;;
43527;SDS011;52359;42.658;23.320;2022-10-31T01:11:47;7.53;;;3.05;;
43527;SDS011;52359;42.658;23.320;2022-10-31T01:14:13;4.70;;;3.17;;
43527;SDS011;52359;42.658;23.320;2022-10-31T01:16:39;8.23;;;3.40;;
43527;SDS011;52359;42.658;23.320;2022-10-31T01:19:05;10.85;;;3.45;;
43527;SDS011;52359;42.658;23.320;2022-10-31T01:21:32;4.95;;;3.20;;
43527;SDS011;52359;42.658;23.320;2022-10-31T01:23:58;7.93;;;3.58;;
43527;SDS011;52359;42.658;23.320;2022-10-31T01:26:27;8.20;;;3.65;;
43527;SDS011;52359;42.658;23.320;2022-10-31T01:29:03;4.93;;;2.70;;
43527;SDS011;52359;42.658;23.320;2022-10-31T01:31:31;7.97;;;3.90;;
43527;SDS011;52359;42.658;23.320;2022-10-31T01:33:57;8.43;;;3.45;;
43527;SDS011;52359;42.658;23.320;2022-10-31T01:36:25;12.40;;;4.65;;
43527;SDS011;52359;42.658;23.320;2022-10-31T01:38:52;11.07;;;4.30;;
43527;SDS011;52359;42.658;23.320;2022-10-31T01:41:22;10.48;;;4.65;;
43527;SDS011;52359;42.658;23.320;2022-10-31T01:43:51;9.00;;;4.20;;
43527;SDS011;52359;42.658;23.320;2022-10-31T01:46:19;8.05;;;4.00;;
43527;SDS011;52359;42.658;23.320;2022-10-31T01:48:46;6.32;;;4.13;;
43527;SDS011;52359;42.658;23.320;2022-10-31T01:51:12;6.35;;;4.15;;
43527;SDS011;52359;42.658;23.320;2022-10-31T01:53:40;11.30;;;4.38;;
43527;SDS011;52359;42.658;23.320;2022-10-31T01:56:07;6.07;;;3.70;;
43527;SDS011;52359;42.658;23.320;2022-10-31T01:58:34;7.35;;;4.68;;
43527;SDS011;52359;42.658;23.320;2022-10-31T02:01:00;10.23;;;5.40;;
43527;SDS011;52359;42.658;23.320;2022-10-31T02:03:27;9.27;;;4.38;;
43527;SDS011;52359;42.658;23.320;2022-10-31T02:05:54;10.52;;;4.55;;
43527;SDS011;52359;42.658;23.320;2022-10-31T02:08:30;12.68;;;5.43;;
43527;SDS011;52359;42.658;23.320;2022-10-31T02:10:57;8.93;;;4.45;;
43527;SDS011;52359;42.658;23.320;2022-10-31T02:13:23;9.57;;;4.80;;
43527;SDS011;52359;42.658;23.320;2022-10-31T02:15:51;9.27;;;4.88;;
43527;SDS011;52359;42.658;23.320;2022-10-31T02:18:18;10.98;;;4.63;;
43527;SDS011;52359;42.658;23.320;2022-10-31T02:33:44;8.60;;;5.20;;
43527;SDS011;52359;42.658;23.320;2022-10-31T02:36:17;9.38;;;5.07;;
43527;SDS011;52359;42.658;23.320;2022-10-31T02:46:39;12.27;;;5.55;;
43527;SDS011;52359;42.658;23.320;2022-10-31T02:49:11;10.02;;;5.40;;
43527;SDS011;52359;42.658;23.320;2022-10-31T02:52:01;8.30;;;5.13;;
43527;SDS011;52359;42.658;23.320;2022-10-31T02:54:27;14.52;;;5.72;;
43527;SDS011;52359;42.658;23.320;2022-10-31T02:56:59;14.25;;;5.57;;
43527;SDS011;52359;42.658;23.320;2022-10-31T02:59:26;10.23;;;5.18;;
43527;SDS011;52359;42.658;23.320;2022-10-31T03:09:52;9.88;;;5.30;;
43527;SDS011;52359;42.658;23.320;2022-10-31T03:15:33;8.95;;;5.93;;
43527;SDS011;52359;42.658;23.320;2022-10-31T03:20:39;6.50;;;5.07;;
43527;SDS011;52359;42.658;23.320;2022-10-31T03:23:07;16.95;;;6.20;;
43527;SDS011;52359;42.658;23.320;2022-10-31T03:25:34;11.70;;;6.35;;
43527;SDS011;52359;42.658;23.320;2022-10-31T03:28:02;11.93;;;5.45;;
43527;SDS011;52359;42.658;23.320;2022-10-31T03:30:29;16.58;;;5.80;;
43527;SDS011;52359;42.658;23.320;2022-10-31T03:32:55;12.73;;;5.43;;
43527;SDS011;52359;42.658;23.320;2022-10-31T03:35:22;10.50;;;6.03;;
43527;SDS011;52359;42.658;23.320;2022-10-31T03:37:49;25.05;;;5.57;;
43527;SDS011;52359;42.658;23.320;2022-10-31T03:40:18;15.48;;;5.03;;
43527;SDS011;52359;42.658;23.320;2022-10-31T03:42:46;13.48;;;5.78;;
43527;SDS011;52359;42.658;23.320;2022-10-31T03:45:15;12.35;;;5.53;;
43527;SDS011;52359;42.658;23.320;2022-10-31T03:47:43;12.68;;;6.03;;
43527;SDS011;52359;42.658;23.320;2022-10-31T03:50:10;11.77;;;5.78;;
43527;SDS011;52359;42.658;23.320;2022-10-31T03:55:05;14.18;;;6.22;;
43527;SDS011;52359;42.658;23.320;2022-10-31T03:57:35;12.68;;;5.60;;
43527;SDS011;52359;42.658;23.320;2022-10-31T04:00:05;14.48;;;5.97;;
43527;SDS011;52359;42.658;23.320;2022-10-31T04:02:32;18.85;;;6.22;;
43527;SDS011;52359;42.658;23.320;2022-10-31T04:04:58;15.00;;;6.20;;
43527;SDS011;52359;42.658;23.320;2022-10-31T04:07:26;22.48;;;6.30;;
43527;SDS011;52359;42.658;23.320;2022-10-31T04:09:53;11.75;;;5.57;;
43527;SDS011;52359;42.658;23.320;2022-10-31T04:12:20;11.45;;;6.65;;
43527;SDS011;52359;42.658;23.320;2022-10-31T04:14:46;10.73;;;6.47;;
43527;SDS011;52359;42.658;23.320;2022-10-31T04:17:14;17.90;;;7.28;;
43527;SDS011;52359;42.658;23.320;2022-10-31T04:19:41;16.05;;;6.95;;
43527;SDS011;52359;42.658;23.320;2022-10-31T04:22:07;10.20;;;6.68;;
43527;SDS011;52359;42.658;23.320;2022-10-31T04:24:33;14.60;;;7.53;;
43527;SDS011;52359;42.658;23.320;2022-10-31T04:26:59;18.73;;;8.70;;
43527;SDS011;52359;42.658;23.320;2022-10-31T04:29:25;16.65;;;8.77;;
43527;SDS011;52359;42.658;23.320;2022-10-31T04:31:51;17.20;;;8.38;;
43527;SDS011;52359;42.658;23.320;2022-10-31T04:34:17;13.88;;;8.05;;
43527;SDS011;52359;42.658;23.320;2022-10-31T04:36:43;17.58;;;7.70;;
43527;SDS011;52359;42.658;23.320;2022-10-31T04:39:09;16.30;;;7.95;;
43527;SDS011;52359;42.658;23.320;2022-10-31T04:41:35;18.60;;;8.18;;
43527;SDS011;52359;42.658;23.320;2022-10-31T04:44:01;10.85;;;7.07;;
43527;SDS011;52359;42.658;23.320;2022-10-31T04:46:27;18.38;;;8.45;;
43527;SDS011;52359;42.658;23.320;2022-10-31T04:48:53;16.02;;;8.27;;
43527;SDS011;52359;42.658;23.320;2022-10-31T04:51:19;14.20;;;8.07;;
43527;SDS011;52359;42.658;23.320;2022-10-31T04:53:45;22.02;;;8.63;;
43527;SDS011;52359;42.658;23.320;2022-10-31T04:56:11;26.08;;;8.15;;
43527;SDS011;52359;42.658;23.320;2022-10-31T04:58:37;33.35;;;9.30;;
43527;SDS011;52359;42.658;23.320;2022-10-31T05:01:03;19.38;;;8.07;;
43527;SDS011;52359;42.658;23.320;2022-10-31T05:03:29;31.65;;;9.18;;
43527;SDS011;52359;42.658;23.320;2022-10-31T05:05:55;41.53;;;10.85;;
43527;SDS011;52359;42.658;23.320;2022-10-31T05:08:21;26.50;;;8.65;;
43527;SDS011;52359;42.658;23.320;2022-10-31T05:10:47;25.10;;;8.38;;
43527;SDS011;52359;42.658;23.320;2022-10-31T05:13:13;47.50;;;9.18;;
43527;SDS011;52359;42.658;23.320;2022-10-31T05:15:40;21.63;;;9.05;;
43527;SDS011;52359;42.658;23.320;2022-10-31T05:18:06;26.00;;;8.93;;
43527;SDS011;52359;42.658;23.320;2022-10-31T05:20:32;19.40;;;8.18;;
43527;SDS011;52359;42.658;23.320;2022-10-31T05:22:59;23.08;;;8.98;;
43527;SDS011;52359;42.658;23.320;2022-10-31T05:25:26;25.48;;;8.95;;
43527;SDS011;52359;42.658;23.320;2022-10-31T05:27:53;27.52;;;10.90;;
43527;SDS011;52359;42.658;23.320;2022-10-31T05:30:23;30.17;;;10.60;;
43527;SDS011;52359;42.658;23.320;2022-10-31T05:32:50;25.58;;;10.40;;
43527;SDS011;52359;42.658;23.320;2022-10-31T05:35:20;32.05;;;9.10;;
43527;SDS011;52359;42.658;23.320;2022-10-31T05:37:47;46.30;;;10.50;;
43527;SDS011;52359;42.658;23.320;2022-10-31T05:40:14;47.38;;;10.88;;
43527;SDS011;52359;42.658;23.320;2022-10-31T05:42:40;54.22;;;10.00;;
43527;SDS011;52359;42.658;23.320;2022-10-31T05:45:07;78.28;;;11.70;;
43527;SDS011;52359;42.658;23.320;2022-10-31T05:47:34;71.40;;;10.43;;
43527;SDS011;52359;42.658;23.320;2022-10-31T05:49:59;44.15;;;9.73;;
43527;SDS011;52359;42.658;23.320;2022-10-31T05:52:26;43.78;;;9.55;;
43527;SDS011;52359;42.658;23.320;2022-10-31T05:54:52;36.17;;;10.75;;
43527;SDS011;52359;42.658;23.320;2022-10-31T05:57:18;28.83;;;8.95;;
43527;SDS011;52359;42.658;23.320;2022-10-31T05:59:44;26.83;;;10.38;;
43527;SDS011;52359;42.658;23.320;2022-10-31T06:02:10;24.85;;;9.10;;
43527;SDS011;52359;42.658;23.320;2022-10-31T06:04:40;23.98;;;9.43;;
43527;SDS011;52359;42.658;23.320;2022-10-31T06:07:06;31.00;;;9.63;;
43527;SDS011;52359;42.658;23.320;2022-10-31T06:09:32;21.02;;;8.57;;
43527;SDS011;52359;42.658;23.320;2022-10-31T06:11:58;29.95;;;9.55;;
43527;SDS011;52359;42.658;23.320;2022-10-31T06:14:24;32.40;;;10.27;;
43527;SDS011;52359;42.658;23.320;2022-10-31T06:16:50;25.45;;;9.20;;
43527;SDS011;52359;42.658;23.320;2022-10-31T06:19:16;29.95;;;10.18;;
43527;SDS011;52359;42.658;23.320;2022-10-31T06:21:42;33.20;;;10.65;;
43527;SDS011;52359;42.658;23.320;2022-10-31T06:24:08;50.20;;;10.50;;
43527;SDS011;52359;42.658;23.320;2022-10-31T06:26:34;45.55;;;11.00;;
43527;SDS011;52359;42.658;23.320;2022-10-31T06:29:00;38.03;;;10.52;;
43527;SDS011;52359;42.658;23.320;2022-10-31T06:31:26;42.58;;;11.95;;
43527;SDS011;52359;42.658;23.320;2022-10-31T06:33:52;43.53;;;11.07;;
43527;SDS011;52359;42.658;23.320;2022-10-31T06:36:18;31.65;;;9.95;;
43527;SDS011;52359;42.658;23.320;2022-10-31T06:38:44;25.55;;;10.52;;
43527;SDS011;52359;42.658;23.320;2022-10-31T06:41:10;25.13;;;10.75;;
43527;SDS011;52359;42.658;23.320;2022-10-31T06:43:36;41.53;;;11.32;;
43527;SDS011;52359;42.658;23.320;2022-10-31T06:46:02;35.97;;;11.48;;
43527;SDS011;52359;42.658;23.320;2022-10-31T06:48:29;32.83;;;11.55;;
43527;SDS011;52359;42.658;23.320;2022-10-31T06:51:01;23.20;;;11.82;;
43527;SDS011;52359;42.658;23.320;2022-10-31T06:53:27;32.53;;;12.45;;
43527;SDS011;52359;42.658;23.320;2022-10-31T06:55:57;28.38;;;11.20;;
43527;SDS011;52359;42.658;23.320;2022-10-31T06:58:23;23.52;;;10.93;;
43527;SDS011;52359;42.658;23.320;2022-10-31T07:00:49;27.38;;;12.07;;
43527;SDS011;52359;42.658;23.320;2022-10-31T07:03:15;29.35;;;12.23;;
43527;SDS011;52359;42.658;23.320;2022-10-31T07:05:42;26.90;;;12.10;;
43527;SDS011;52359;42.658;23.320;2022-10-31T07:08:09;27.80;;;11.27;;
43527;SDS011;52359;42.658;23.320;2022-10-31T07:10:36;24.08;;;10.98;;
43527;SDS011;52359;42.658;23.320;2022-10-31T07:13:04;29.05;;;12.38;;
43527;SDS011;52359;42.658;23.320;2022-10-31T07:15:33;32.72;;;11.27;;
43527;SDS011;52359;42.658;23.320;2022-10-31T07:18:00;22.27;;;9.65;;
43527;SDS011;52359;42.658;23.320;2022-10-31T07:20:26;36.30;;;11.35;;
43527;SDS011;52359;42.658;23.320;2022-10-31T07:22:52;40.42;;;11.45;;
43527;SDS011;52359;42.658;23.320;2022-10-31T07:25:19;29.08;;;11.45;;
43527;SDS011;52359;42.658;23.320;2022-10-31T07:27:45;29.50;;;10.43;;
43527;SDS011;52359;42.658;23.320;2022-10-31T07:30:11;31.45;;;11.82;;
43527;SDS011;52359;42.658;23.320;2022-10-31T07:32:38;25.25;;;11.57;;
43527;SDS011;52359;42.658;23.320;2022-10-31T07:35:05;25.25;;;11.43;;
43527;SDS011;52359;42.658;23.320;2022-10-31T07:37:32;26.50;;;11.80;;
43527;SDS011;52359;42.658;23.320;2022-10-31T07:39:58;27.35;;;12.35;;
43527;SDS011;52359;42.658;23.320;2022-10-31T07:42:24;24.77;;;11.68;;
43527;SDS011;52359;42.658;23.320;2022-10-31T07:44:50;21.02;;;12.43;;
43527;SDS011;52359;42.658;23.320;2022-10-31T07:47:16;19.92;;;11.38;;
43527;SDS011;52359;42.658;23.320;2022-10-31T07:49:42;20.05;;;10.75;;
43527;SDS011;52359;42.658;23.320;2022-10-31T07:52:08;40.95;;;12.95;;
43527;SDS011;52359;42.658;23.320;2022-10-31T07:54:34;30.63;;;12.57;;
43527;SDS011;52359;42.658;23.320;2022-10-31T07:57:00;34.72;;;13.07;;
43527;SDS011;52359;42.658;23.320;2022-10-31T07:59:26;32.00;;;13.65;;
43527;SDS011;52359;42.658;23.320;2022-10-31T08:01:52;26.08;;;12.40;;
43527;SDS011;52359;42.658;23.320;2022-10-31T08:04:18;25.63;;;11.80;;
43527;SDS011;52359;42.658;23.320;2022-10-31T08:06:44;22.10;;;11.23;;
43527;SDS011;52359;42.658;23.320;2022-10-31T08:09:13;26.85;;;12.07;;
43527;SDS011;52359;42.658;23.320;2022-10-31T08:11:39;23.42;;;11.95;;
43527;SDS011;52359;42.658;23.320;2022-10-31T08:14:05;23.90;;;11.60;;
43527;SDS011;52359;42.658;23.320;2022-10-31T08:16:31;27.13;;;12.32;;
43527;SDS011;52359;42.658;23.320;2022-10-31T08:18:57;23.60;;;10.55;;
43527;SDS011;52359;42.658;23.320;2022-10-31T08:21:23;22.33;;;11.57;;
43527;SDS011;52359;42.658;23.320;2022-10-31T08:23:49;28.73;;;12.38;;
43527;SDS011;52359;42.658;23.320;2022-10-31T08:26:15;25.88;;;12.07;;
43527;SDS011;52359;42.658;23.320;2022-10-31T08:28:41;29.88;;;11.68;;
43527;SDS011;52359;42.658;23.320;2022-10-31T08:31:06;19.08;;;11.65;;
43527;SDS011;52359;42.658;23.320;2022-10-31T08:33:32;25.17;;;10.73;;
43527;SDS011;52359;42.658;23.320;2022-10-31T08:35:58;24.88;;;9.93;;
43527;SDS011;52359;42.658;23.320;2022-10-31T08:38:24;27.75;;;11.90;;
43527;SDS011;52359;42.658;23.320;2022-10-31T08:40:49;23.17;;;11.45;;
43527;SDS011;52359;42.658;23.320;2022-10-31T08:43:16;19.02;;;10.75;;
43527;SDS011;52359;42.658;23.320;2022-10-31T08:45:43;27.92;;;10.77;;
43527;SDS011;52359;42.658;23.320;2022-10-31T08:48:11;16.45;;;10.40;;
43527;SDS011;52359;42.658;23.320;2022-10-31T08:50:38;18.10;;;10.32;;
43527;SDS011;52359;42.658;23.320;2022-10-31T08:53:05;25.27;;;11.43;;
43527;SDS011;52359;42.658;23.320;2022-10-31T08:55:42;15.38;;;8.98;;
43527;SDS011;52359;42.658;23.320;2022-10-31T08:58:09;20.10;;;10.05;;
43527;SDS011;52359;42.658;23.320;2022-10-31T09:00:36;28.20;;;11.45;;
43527;SDS011;52359;42.658;23.320;2022-10-31T09:03:06;24.95;;;10.50;;
43527;SDS011;52359;42.658;23.320;2022-10-31T09:08:01;24.27;;;11.57;;
43527;SDS011;52359;42.658;23.320;2022-10-31T09:10:27;23.05;;;11.35;;
43527;SDS011;52359;42.658;23.320;2022-10-31T09:12:54;19.90;;;11.15;;
43527;SDS011;52359;42.658;23.320;2022-10-31T09:15:21;29.13;;;10.73;;
43527;SDS011;52359;42.658;23.320;2022-10-31T09:17:47;19.30;;;9.35;;
43527;SDS011;52359;42.658;23.320;2022-10-31T09:20:13;17.85;;;8.93;;
43527;SDS011;52359;42.658;23.320;2022-10-31T09:22:39;22.23;;;9.07;;
43527;SDS011;52359;42.658;23.320;2022-10-31T09:25:05;26.70;;;8.63;;
43527;SDS011;52359;42.658;23.320;2022-10-31T09:27:32;24.75;;;8.80;;
43527;SDS011;52359;42.658;23.320;2022-10-31T09:29:57;17.63;;;8.32;;
43527;SDS011;52359;42.658;23.320;2022-10-31T09:32:23;13.82;;;8.43;;
43527;SDS011;52359;42.658;23.320;2022-10-31T09:34:49;14.10;;;8.65;;
43527;SDS011;52359;42.658;23.320;2022-10-31T09:37:16;17.95;;;9.13;;
43527;SDS011;52359;42.658;23.320;2022-10-31T09:39:41;19.67;;;7.97;;
43527;SDS011;52359;42.658;23.320;2022-10-31T09:52:18;16.85;;;7.65;;
43527;SDS011;52359;42.658;23.320;2022-10-31T09:54:49;11.55;;;6.50;;
43527;SDS011;52359;42.658;23.320;2022-10-31T09:57:17;21.63;;;6.93;;
43527;SDS011;52359;42.658;23.320;2022-10-31T09:59:46;23.23;;;6.30;;
43527;SDS011;52359;42.658;23.320;2022-10-31T10:04:43;12.18;;;6.53;;
43527;SDS011;52359;42.658;23.320;2022-10-31T10:09:45;14.23;;;5.50;;
43527;SDS011;52359;42.658;23.320;2022-10-31T10:17:24;14.10;;;4.88;;
43527;SDS011;52359;42.658;23.320;2022-10-31T10:27:44;16.05;;;5.82;;
43527;SDS011;52359;42.658;23.320;2022-10-31T10:30:27;14.85;;;5.05;;
43527;SDS011;52359;42.658;23.320;2022-10-31T10:32:59;9.77;;;4.10;;
43527;SDS011;52359;42.658;23.320;2022-10-31T10:35:27;15.68;;;4.72;;
43527;SDS011;52359;42.658;23.320;2022-10-31T10:38:08;16.40;;;5.72;;
43527;SDS011;52359;42.658;23.320;2022-10-31T10:40:36;9.48;;;4.45;;
43527;SDS011;52359;42.658;23.320;2022-10-31T10:43:18;14.48;;;3.47;;
43527;SDS011;52359;42.658;23.320;2022-10-31T10:54:18;7.90;;;2.83;;
43527;SDS011;52359;42.658;23.320;2022-10-31T10:59:16;11.55;;;3.10;;
43527;SDS011;52359;42.658;23.320;2022-10-31T11:01:43;8.00;;;3.58;;
43527;SDS011;52359;42.658;23.320;2022-10-31T11:04:22;7.85;;;3.35;;
43527;SDS011;52359;42.658;23.320;2022-10-31T11:07:05;8.00;;;3.00;;
43527;SDS011;52359;42.658;23.320;2022-10-31T11:09:32;6.53;;;2.95;;
43527;SDS011;52359;42.658;23.320;2022-10-31T11:11:58;15.70;;;2.80;;
43527;SDS011;52359;42.658;23.320;2022-10-31T11:14:25;8.32;;;3.05;;
43527;SDS011;52359;42.658;23.320;2022-10-31T11:16:54;14.30;;;4.28;;
43527;SDS011;52359;42.658;23.320;2022-10-31T11:19:25;8.80;;;2.85;;
43527;SDS011;52359;42.658;23.320;2022-10-31T11:21:52;25.30;;;3.93;;
43527;SDS011;52359;42.658;23.320;2022-10-31T11:24:19;13.80;;;3.28;;
43527;SDS011;52359;42.658;23.320;2022-10-31T11:26:46;10.13;;;3.08;;
43527;SDS011;52359;42.658;23.320;2022-10-31T11:29:13;11.77;;;2.85;;
43527;SDS011;52359;42.658;23.320;2022-10-31T11:31:40;9.73;;;3.22;;
43527;SDS011;52359;42.658;23.320;2022-10-31T11:34:12;6.22;;;2.80;;
43527;SDS011;52359;42.658;23.320;2022-10-31T11:36:42;14.98;;;3.35;;
43527;SDS011;52359;42.658;23.320;2022-10-31T11:39:18;8.98;;;3.50;;
43527;SDS011;52359;42.658;23.320;2022-10-31T11:41:46;15.80;;;3.65;;
43527;SDS011;52359;42.658;23.320;2022-10-31T11:44:28;9.00;;;3.50;;
43527;SDS011;52359;42.658;23.320;2022-10-31T11:46:56;5.50;;;2.95;;
43527;SDS011;52359;42.658;23.320;2022-10-31T11:51:56;18.52;;;3.78;;
43527;SDS011;52359;42.658;23.320;2022-10-31T11:54:24;17.73;;;3.58;;
43527;SDS011;52359;42.658;23.320;2022-10-31T11:56:50;5.65;;;2.95;;
43527;SDS011;52359;42.658;23.320;2022-10-31T11:59:18;23.70;;;4.25;;
43527;SDS011;52359;42.658;23.320;2022-10-31T12:01:50;19.25;;;3.75;;
43527;SDS011;52359;42.658;23.320;2022-10-31T12:04:16;10.15;;;3.38;;
43527;SDS011;52359;42.658;23.320;2022-10-31T12:06:43;9.13;;;2.88;;
43527;SDS011;52359;42.658;23.320;2022-10-31T12:09:21;15.10;;;3.63;;
43527;SDS011;52359;42.658;23.320;2022-10-31T12:11:57;14.27;;;3.92;;
43527;SDS011;52359;42.658;23.320;2022-10-31T12:17:14;15.20;;;3.80;;
43527;SDS011;52359;42.658;23.320;2022-10-31T12:22:30;16.90;;;4.53;;
43527;SDS011;52359;42.658;23.320;2022-10-31T12:27:51;8.10;;;3.50;;
43527;SDS011;52359;42.658;23.320;2022-10-31T12:30:32;12.32;;;3.70;;
43527;SDS011;52359;42.658;23.320;2022-10-31T12:33:16;13.63;;;3.42;;
43527;SDS011;52359;42.658;23.320;2022-10-31T12:35:55;18.50;;;3.72;;
43527;SDS011;52359;42.658;23.320;2022-10-31T12:46:39;13.18;;;3.90;;
43527;SDS011;52359;42.658;23.320;2022-10-31T12:52:22;15.25;;;3.63;;
43527;SDS011;52359;42.658;23.320;2022-10-31T12:55:30;11.15;;;4.32;;
43527;SDS011;52359;42.658;23.320;2022-10-31T12:57:45;11.15;;;3.90;;
43527;SDS011;52359;42.658;23.320;2022-10-31T13:00:16;10.30;;;4.75;;
43527;SDS011;52359;42.658;23.320;2022-10-31T13:05:17;13.40;;;3.78;;
43527;SDS011;52359;42.658;23.320;2022-10-31T13:07:51;11.98;;;3.92;;
43527;SDS011;52359;42.658;23.320;2022-10-31T13:10:26;15.40;;;3.65;;
43527;SDS011;52359;42.658;23.320;2022-10-31T13:12:55;19.13;;;4.53;;
43527;SDS011;52359;42.658;23.320;2022-10-31T13:15:29;17.70;;;5.60;;
43527;SDS011;52359;42.658;23.320;2022-10-31T13:17:59;8.80;;;3.97;;
43527;SDS011;52359;42.658;23.320;2022-10-31T13:25:31;49.63;;;15.10;;
43527;SDS011;52359;42.658;23.320;2022-10-31T13:30:25;26.40;;;4.97;;
43527;SDS011;52359;42.658;23.320;2022-10-31T13:40:41;8.95;;;3.65;;
43527;SDS011;52359;42.658;23.320;2022-10-31T13:43:26;19.80;;;3.65;;
43527;SDS011;52359;42.658;23.320;2022-10-31T13:45:53;48.67;;;5.05;;
43527;SDS011;52359;42.658;23.320;2022-10-31T13:50:56;23.67;;;4.40;;
43527;SDS011;52359;42.658;23.320;2022-10-31T13:53:38;9.25;;;3.30;;
43527;SDS011;52359;42.658;23.320;2022-10-31T13:58:33;23.00;;;3.78;;
43527;SDS011;52359;42.658;23.320;2022-10-31T14:03:29;21.38;;;4.28;;
43527;SDS011;52359;42.658;23.320;2022-10-31T14:05:55;14.05;;;4.55;;
43527;SDS011;52359;42.658;23.320;2022-10-31T14:08:22;18.40;;;5.28;;
43527;SDS011;52359;42.658;23.320;2022-10-31T14:10:50;19.08;;;5.43;;
43527;SDS011;52359;42.658;23.320;2022-10-31T14:13:33;20.48;;;4.35;;
43527;SDS011;52359;42.658;23.320;2022-10-31T14:16:06;20.42;;;4.50;;
43527;SDS011;52359;42.658;23.320;2022-10-31T14:18:33;17.17;;;4.30;;
43527;SDS011;52359;42.658;23.320;2022-10-31T14:21:00;22.73;;;4.95;;
43527;SDS011;52359;42.658;23.320;2022-10-31T14:23:39;22.08;;;5.15;;
43527;SDS011;52359;42.658;23.320;2022-10-31T14:28:44;20.95;;;5.28;;
43527;SDS011;52359;42.658;23.320;2022-10-31T14:31:24;20.88;;;5.78;;
43527;SDS011;52359;42.658;23.320;2022-10-31T14:33:53;20.40;;;4.80;;
43527;SDS011;52359;42.658;23.320;2022-10-31T14:36:25;24.20;;;5.43;;
43527;SDS011;52359;42.658;23.320;2022-10-31T14:51:42;22.80;;;6.60;;
43527;SDS011;52359;42.658;23.320;2022-10-31T14:56:26;26.98;;;5.70;;
43527;SDS011;52359;42.658;23.320;2022-10-31T14:58:53;20.60;;;5.40;;
43527;SDS011;52359;42.658;23.320;2022-10-31T15:03:49;28.33;;;6.97;;
43527;SDS011;52359;42.658;23.320;2022-10-31T15:06:17;25.95;;;9.20;;
43527;SDS011;52359;42.658;23.320;2022-10-31T15:08:45;32.08;;;7.82;;
43527;SDS011;52359;42.658;23.320;2022-10-31T15:16:17;42.20;;;8.27;;
43527;SDS011;52359;42.658;23.320;2022-10-31T15:18:48;34.65;;;8.25;;
43527;SDS011;52359;42.658;23.320;2022-10-31T15:21:16;34.33;;;9.37;;
43527;SDS011;52359;42.658;23.320;2022-10-31T15:23:42;56.53;;;8.65;;
43527;SDS011;52359;42.658;23.320;2022-10-31T15:26:15;48.33;;;8.00;;
43527;SDS011;52359;42.658;23.320;2022-10-31T15:28:41;55.67;;;9.30;;
43527;SDS011;52359;42.658;23.320;2022-10-31T15:31:15;58.97;;;9.88;;
43527;SDS011;52359;42.658;23.320;2022-10-31T15:33:41;31.25;;;8.13;;
43527;SDS011;52359;42.658;23.320;2022-10-31T15:36:21;35.67;;;7.95;;
43527;SDS011;52359;42.658;23.320;2022-10-31T15:38:48;21.00;;;6.30;;
43527;SDS011;52359;42.658;23.320;2022-10-31T15:41:19;23.27;;;5.93;;
43527;SDS011;52359;42.658;23.320;2022-10-31T15:43:47;21.75;;;5.53;;
43527;SDS011;52359;42.658;23.320;2022-10-31T15:46:13;26.00;;;6.03;;
43527;SDS011;52359;42.658;23.320;2022-10-31T15:48:43;23.73;;;5.90;;
43527;SDS011;52359;42.658;23.320;2022-10-31T15:51:09;21.52;;;5.25;;
43527;SDS011;52359;42.658;23.320;2022-10-31T15:53:43;23.90;;;5.40;;
43527;SDS011;52359;42.658;23.320;2022-10-31T15:56:11;27.30;;;5.60;;
43527;SDS011;52359;42.658;23.320;2022-10-31T15:58:45;16.08;;;5.40;;
43527;SDS011;52359;42.658;23.320;2022-10-31T16:03:54;27.85;;;6.90;;
43527;SDS011;52359;42.658;23.320;2022-10-31T16:06:22;29.17;;;6.35;;
43527;SDS011;52359;42.658;23.320;2022-10-31T16:08:48;29.38;;;6.15;;
43527;SDS011;52359;42.658;23.320;2022-10-31T16:11:27;39.38;;;7.28;;
43527;SDS011;52359;42.658;23.320;2022-10-31T16:14:13;22.23;;;5.55;;
43527;SDS011;52359;42.658;23.320;2022-10-31T16:16:41;26.63;;;5.80;;
43527;SDS011;52359;42.658;23.320;2022-10-31T16:19:14;25.85;;;6.68;;
43527;SDS011;52359;42.658;23.320;2022-10-31T16:21:41;21.42;;;5.38;;
43527;SDS011;52359;42.658;23.320;2022-10-31T16:24:14;15.15;;;4.30;;
43527;SDS011;52359;42.658;23.320;2022-10-31T16:26:41;21.98;;;4.70;;
43527;SDS011;52359;42.658;23.320;2022-10-31T16:29:22;31.65;;;5.70;;
43527;SDS011;52359;42.658;23.320;2022-10-31T16:31:49;24.30;;;6.17;;
43527;SDS011;52359;42.658;23.320;2022-10-31T16:34:17;26.48;;;5.85;;
43527;SDS011;52359;42.658;23.320;2022-10-31T16:36:45;29.50;;;6.18;;
43527;SDS011;52359;42.658;23.320;2022-10-31T16:39:11;38.63;;;6.13;;
43527;SDS011;52359;42.658;23.320;2022-10-31T16:41:39;33.70;;;6.60;;
43527;SDS011;52359;42.658;23.320;2022-10-31T16:44:26;48.78;;;7.18;;
43527;SDS011;52359;42.658;23.320;2022-10-31T16:47:05;27.65;;;6.18;;
43527;SDS011;52359;42.658;23.320;2022-10-31T16:49:32;48.47;;;7.70;;
43527;SDS011;52359;42.658;23.320;2022-10-31T16:51:58;40.78;;;6.28;;
43527;SDS011;52359;42.658;23.320;2022-10-31T16:54:24;30.13;;;5.82;;
43527;SDS011;52359;42.658;23.320;2022-10-31T16:56:50;41.17;;;6.50;;
43527;SDS011;52359;42.658;23.320;2022-10-31T16:59:16;43.35;;;7.13;;
43527;SDS011;52359;42.658;23.320;2022-10-31T17:01:43;39.80;;;6.40;;